Time;durP1;ratioP1;P1;durP2;ratioP2;P2;SDS_P1;SDS_P2;PMS_P1;PMS_P2;Temp;Humidity;BMP_temperature;BMP_pressure;BME280_temperature;BME280_humidity;BME280_pressure;Samples;Min_cycle;Max_cycle;Signal;HPM_P1;HPM_P2
2023/06/20 00:01:02;;;;;;;21.57;19.60;;;20.70;99.90;;;;;;5047161;28;20873;-70
2023/06/20 00:03:28;;;;;;;20.63;18.83;;;20.80;99.90;;;;;;5049153;28;20291;-70
2023/06/20 00:05:53;;;;;;;23.07;20.67;;;20.80;99.90;;;;;;5048180;28;20276;-70
2023/06/20 00:08:19;;;;;;;21.77;19.87;;;20.70;99.90;;;;;;5049973;28;20195;-71
2023/06/20 00:10:44;;;;;;;20.50;18.80;;;20.70;99.90;;;;;;5049842;28;20199;-71
2023/06/20 00:13:10;;;;;;;21.87;19.87;;;20.70;99.90;;;;;;5049612;28;20202;-71
2023/06/20 00:15:35;;;;;;;22.00;19.90;;;20.70;99.90;;;;;;5049591;28;20243;-71
2023/06/20 00:18:01;;;;;;;22.20;20.13;;;20.70;99.90;;;;;;5048178;28;20229;-70
2023/06/20 00:20:27;;;;;;;22.87;20.70;;;20.70;99.90;;;;;;5049052;28;20251;-71
2023/06/20 00:22:54;;;;;;;22.50;20.47;;;20.70;99.90;;;;;;5048050;28;20214;-71
2023/06/20 00:25:19;;;;;;;22.77;20.77;;;20.70;99.90;;;;;;5048312;28;20198;-71
2023/06/20 00:27:45;;;;;;;22.13;20.03;;;20.70;99.90;;;;;;5048729;28;20195;-71
2023/06/20 00:30:11;;;;;;;22.30;20.27;;;20.60;99.90;;;;;;5046954;28;20249;-71
2023/06/20 00:32:37;;;;;;;22.13;20.23;;;20.60;99.90;;;;;;5049358;28;20203;-72
2023/06/20 00:35:02;;;;;;;21.37;19.37;;;20.60;99.90;;;;;;5049500;28;20224;-72
2023/06/20 00:37:28;;;;;;;22.60;20.60;;;20.60;99.90;;;;;;5048141;28;20584;-74
2023/06/20 00:39:54;;;;;;;21.60;19.80;;;20.60;99.90;;;;;;5048967;28;20236;-72
2023/06/20 00:42:23;;;;;;;22.67;20.57;;;20.60;99.90;;;;;;5048124;28;20292;-72
2023/06/20 00:44:49;;;;;;;22.30;20.27;;;20.60;99.90;;;;;;5048955;28;20194;-73
2023/06/20 00:47:18;;;;;;;21.47;19.67;;;20.60;99.90;;;;;;5048463;28;20694;-73
2023/06/20 00:49:48;;;;;;;24.40;21.83;;;20.60;99.90;;;;;;5050612;28;20214;-71
2023/06/20 00:52:16;;;;;;;22.67;20.57;;;20.60;99.90;;;;;;5063021;28;20205;-70
2023/06/20 00:54:43;;;;;;;24.10;21.53;;;20.60;99.90;;;;;;5062523;28;20215;-69
2023/06/20 00:57:09;;;;;;;22.53;20.47;;;20.60;99.90;;;;;;5065196;28;20716;-69
2023/06/20 00:59:35;;;;;;;22.40;20.10;;;20.60;99.90;;;;;;5062695;28;20691;-70
2023/06/20 01:02:03;;;;;;;22.57;20.57;;;20.60;99.90;;;;;;5046274;28;20307;-71
2023/06/20 01:04:31;;;;;;;21.53;19.67;;;20.50;99.90;;;;;;5046635;28;20198;-71
2023/06/20 01:07:12;;;;;;;23.00;20.80;;;20.50;99.90;;;;;;5045941;28;20755;-71
2023/06/20 01:10:05;;;;;;;22.13;20.13;;;20.50;99.90;;;;;;5046086;28;20202;-71
2023/06/20 01:12:35;;;;;;;22.30;20.30;;;20.50;99.90;;;;;;5055443;28;20209;-70
2023/06/20 01:15:25;;;;;;;22.63;20.73;;;20.60;99.90;;;;;;5063666;28;20224;-68
2023/06/20 01:18:11;;;;;;;22.07;20.13;;;20.60;99.90;;;;;;5064331;28;20214;-71
2023/06/20 01:20:43;;;;;;;21.83;19.87;;;20.50;99.90;;;;;;5066185;28;20274;-71
2023/06/20 01:23:15;;;;;;;21.83;19.73;;;20.50;99.90;;;;;;5067374;28;20239;-71
2023/06/20 01:25:55;;;;;;;22.53;20.63;;;20.50;99.90;;;;;;5070501;28;20550;-70
2023/06/20 01:28:50;;;;;;;22.37;20.40;;;20.40;99.90;;;;;;5067313;28;20196;-71
2023/06/20 01:31:21;;;;;;;24.03;21.97;;;20.40;99.90;;;;;;5062390;28;20209;-70
2023/06/20 01:33:55;;;;;;;21.77;19.97;;;20.40;99.90;;;;;;5068220;28;20270;-69
2023/06/20 01:36:23;;;;;;;22.37;20.47;;;20.40;99.90;;;;;;5066267;28;20294;-69
2023/06/20 01:38:54;;;;;;;23.13;20.87;;;20.30;99.90;;;;;;5057818;28;20251;-70
2023/06/20 01:41:22;;;;;;;23.93;21.83;;;20.30;99.90;;;;;;5059341;28;20217;-67
2023/06/20 01:43:49;;;;;;;21.57;19.57;;;20.30;99.90;;;;;;5055373;28;20540;-69
2023/06/20 01:46:16;;;;;;;22.63;20.83;;;20.30;99.90;;;;;;5056670;28;20213;-69
2023/06/20 01:48:43;;;;;;;23.50;21.40;;;20.40;99.90;;;;;;5056120;28;20205;-69
2023/06/20 01:51:08;;;;;;;23.90;21.53;;;20.40;99.90;;;;;;5055880;28;20201;-68
2023/06/20 01:53:35;;;;;;;21.70;19.90;;;20.40;99.90;;;;;;5056743;28;20667;-69
2023/06/20 01:56:03;;;;;;;22.30;20.27;;;20.30;99.90;;;;;;5054863;28;20205;-71
2023/06/20 01:58:30;;;;;;;23.07;20.97;;;20.20;99.90;;;;;;5055172;28;20209;-70
2023/06/20 02:00:57;;;;;;;23.37;21.13;;;20.20;99.90;;;;;;5057251;28;20204;-69
2023/06/20 02:03:25;;;;;;;23.00;20.93;;;20.20;99.90;;;;;;5057549;28;20193;-71
2023/06/20 02:05:53;;;;;;;21.70;19.57;;;20.20;99.90;;;;;;5060183;28;20248;-72
2023/06/20 02:08:20;;;;;;;23.60;21.40;;;20.20;99.90;;;;;;5047035;28;20463;-70
2023/06/20 02:10:46;;;;;;;22.20;20.13;;;20.20;99.90;;;;;;5056854;28;20870;-70
2023/06/20 02:13:13;;;;;;;22.77;20.67;;;20.20;99.90;;;;;;5054901;28;20200;-69
2023/06/20 02:15:40;;;;;;;22.43;20.43;;;20.20;99.90;;;;;;5056071;28;20197;-68
2023/06/20 02:18:06;;;;;;;23.00;20.77;;;20.20;99.90;;;;;;5055148;28;20209;-70
2023/06/20 02:20:31;;;;;;;22.80;20.67;;;20.20;99.90;;;;;;5057696;28;20688;-62
2023/06/20 02:22:57;;;;;;;22.63;20.70;;;20.20;99.90;;;;;;5051650;28;20329;-61
2023/06/20 02:25:29;;;;;;;24.97;22.57;;;20.20;99.90;;;;;;5057086;28;20289;-70
2023/06/20 02:27:56;;;;;;;23.87;21.87;;;20.20;99.90;;;;;;5059983;28;20766;-64
2023/06/20 02:30:25;;;;;;;25.17;22.97;;;20.20;99.90;;;;;;5063616;28;20201;-62
2023/06/20 02:32:53;;;;;;;23.93;21.73;;;20.20;99.90;;;;;;5058688;28;20200;-62
2023/06/20 02:35:20;;;;;;;23.03;20.93;;;20.20;99.90;;;;;;5061119;28;20214;-62
2023/06/20 02:37:48;;;;;;;22.57;20.47;;;20.10;99.90;;;;;;5058605;28;20217;-62
2023/06/20 02:40:13;;;;;;;23.40;21.37;;;20.10;99.90;;;;;;5059512;28;20637;-62
2023/06/20 02:42:39;;;;;;;22.73;20.63;;;20.10;99.90;;;;;;5059949;28;20220;-62
2023/06/20 02:45:05;;;;;;;23.83;21.33;;;20.20;99.90;;;;;;5060254;28;20291;-62
2023/06/20 02:47:36;;;;;;;22.83;20.70;;;20.10;99.90;;;;;;5057397;28;20202;-62
2023/06/20 02:50:14;;;;;;;23.07;20.90;;;20.10;99.90;;;;;;5056216;28;20206;-65
2023/06/20 02:52:50;;;;;;;22.40;20.30;;;20.10;99.90;;;;;;5059271;28;20301;-62
2023/06/20 02:55:26;;;;;;;22.87;20.67;;;20.00;99.90;;;;;;5055365;28;20575;-62
2023/06/20 02:57:58;;;;;;;23.67;21.37;;;20.00;99.90;;;;;;5046897;28;20213;-62
2023/06/20 03:00:25;;;;;;;22.37;20.37;;;20.00;99.90;;;;;;5044398;28;20226;-62
2023/06/20 03:02:59;;;;;;;23.17;21.07;;;20.00;99.90;;;;;;5045614;28;20213;-62
2023/06/20 03:05:28;;;;;;;21.87;19.97;;;20.00;99.90;;;;;;5046387;28;20559;-64
2023/06/20 03:07:55;;;;;;;23.03;20.57;;;20.00;99.90;;;;;;5046242;28;20206;-64
2023/06/20 03:10:21;;;;;;;22.60;20.57;;;20.00;99.90;;;;;;5047174;28;20202;-64
2023/06/20 03:12:47;;;;;;;21.83;20.00;;;20.10;99.90;;;;;;5047231;28;20199;-64
2023/06/20 03:15:12;;;;;;;21.33;19.50;;;20.10;99.90;;;;;;5047255;28;20310;-64
2023/06/20 03:17:38;;;;;;;23.37;20.80;;;20.10;99.90;;;;;;5051871;28;20209;-64
2023/06/20 03:20:05;;;;;;;22.03;20.07;;;20.00;99.90;;;;;;5056312;28;20723;-64
2023/06/20 03:22:31;;;;;;;23.20;21.10;;;20.00;99.90;;;;;;5060123;28;20217;-62
2023/06/20 03:24:56;;;;;;;23.53;21.07;;;20.00;99.90;;;;;;5054851;28;20553;-63
2023/06/20 03:27:22;;;;;;;23.23;21.27;;;20.00;99.90;;;;;;5056661;28;20283;-61
2023/06/20 03:29:47;;;;;;;22.40;20.27;;;20.10;99.90;;;;;;5056288;28;20676;-62
2023/06/20 03:32:13;;;;;;;22.30;20.23;;;20.00;99.90;;;;;;5056533;28;21126;-61
2023/06/20 03:34:38;;;;;;;22.43;20.33;;;20.00;99.90;;;;;;5056268;28;20197;-62
2023/06/20 03:37:04;;;;;;;22.13;20.07;;;20.00;99.90;;;;;;5055101;28;20205;-61
2023/06/20 03:39:29;;;;;;;22.07;19.93;;;20.10;99.90;;;;;;5056296;28;20231;-62
2023/06/20 03:41:55;;;;;;;22.87;20.47;;;20.10;99.90;;;;;;5054047;28;20243;-62
2023/06/20 03:44:20;;;;;;;23.83;21.53;;;20.10;99.90;;;;;;5044604;28;20564;-61
2023/06/20 03:46:46;;;;;;;23.57;21.37;;;20.10;99.90;;;;;;5046858;28;20197;-62
2023/06/20 03:49:11;;;;;;;23.73;21.47;;;20.10;99.90;;;;;;5046533;28;20200;-62
2023/06/20 03:51:38;;;;;;;23.13;20.97;;;20.20;99.90;;;;;;5044246;28;20266;-62
2023/06/20 03:54:04;;;;;;;21.80;19.90;;;20.20;99.90;;;;;;5041448;28;20209;-61
2023/06/20 03:56:29;;;;;;;22.03;20.03;;;20.20;99.90;;;;;;5045999;28;20217;-62
2023/06/20 03:58:55;;;;;;;22.53;20.43;;;20.20;99.90;;;;;;5045689;28;20211;-62
2023/06/20 04:01:24;;;;;;;23.27;21.27;;;20.20;99.90;;;;;;5046052;28;20359;-62
2023/06/20 04:03:50;;;;;;;22.80;20.53;;;20.20;99.90;;;;;;5046173;28;20195;-62
2023/06/20 04:06:15;;;;;;;23.17;20.83;;;20.20;99.90;;;;;;5046598;28;20201;-61
2023/06/20 04:08:42;;;;;;;29.77;26.73;;;20.30;99.90;;;;;;5056212;28;20192;-61
2023/06/20 04:11:08;;;;;;;32.00;28.63;;;20.30;99.90;;;;;;5056866;28;20201;-61
2023/06/20 04:13:33;;;;;;;34.27;27.73;;;20.20;99.90;;;;;;5059837;28;20638;-61
2023/06/20 04:15:59;;;;;;;33.57;29.97;;;20.20;99.90;;;;;;5057211;28;20210;-61
2023/06/20 04:18:24;;;;;;;32.17;28.47;;;20.20;99.90;;;;;;5059099;28;20293;-61
2023/06/20 04:20:50;;;;;;;29.70;26.80;;;20.20;99.90;;;;;;5060100;28;20213;-62
2023/06/20 04:23:15;;;;;;;27.70;25.00;;;20.20;99.90;;;;;;5057470;28;20228;-61
2023/06/20 04:25:41;;;;;;;30.47;25.73;;;20.10;99.90;;;;;;5059286;28;20225;-61
2023/06/20 04:28:06;;;;;;;27.43;24.63;;;20.20;99.90;;;;;;5059457;28;20198;-61
2023/06/20 04:30:32;;;;;;;26.57;23.57;;;20.20;99.90;;;;;;5057373;28;20291;-61
2023/06/20 04:32:57;;;;;;;26.20;23.60;;;20.30;99.90;;;;;;5056772;28;20656;-61
2023/06/20 04:35:23;;;;;;;25.07;22.67;;;20.30;99.90;;;;;;5046009;28;20696;-60
2023/06/20 04:37:51;;;;;;;25.00;22.70;;;20.30;99.90;;;;;;5050211;28;20767;-61
2023/06/20 04:40:20;;;;;;;24.80;22.40;;;20.30;99.90;;;;;;5049042;28;20592;-61
2023/06/20 04:42:45;;;;;;;26.30;23.47;;;20.30;99.90;;;;;;5047739;28;20213;-61
2023/06/20 04:45:11;;;;;;;26.67;23.53;;;20.30;99.90;;;;;;5048493;28;20212;-61
2023/06/20 04:47:37;;;;;;;24.00;21.73;;;20.40;99.90;;;;;;5048796;28;20222;-61
2023/06/20 04:50:03;;;;;;;25.53;22.97;;;20.50;99.90;;;;;;5048649;28;20207;-62
2023/06/20 04:52:32;;;;;;;25.30;23.00;;;20.50;99.90;;;;;;5057676;28;20235;-61
2023/06/20 04:55:03;;;;;;;23.87;21.77;;;20.50;99.90;;;;;;5045656;28;20210;-61
2023/06/20 04:57:30;;;;;;;25.03;22.63;;;20.50;99.90;;;;;;5049348;28;20205;-61
2023/06/20 04:59:56;;;;;;;25.63;23.33;;;20.50;99.90;;;;;;5049408;28;20205;-62
2023/06/20 05:02:22;;;;;;;24.43;22.03;;;20.50;99.90;;;;;;5046984;28;20273;-62
2023/06/20 05:04:47;;;;;;;26.27;23.53;;;20.50;99.90;;;;;;5048066;28;20197;-61
2023/06/20 05:07:13;;;;;;;23.87;21.60;;;20.60;99.90;;;;;;5051174;28;20211;-62
2023/06/20 05:09:38;;;;;;;22.13;20.23;;;20.70;99.90;;;;;;5049062;28;20208;-62
2023/06/20 05:12:04;;;;;;;23.23;21.13;;;20.70;99.90;;;;;;5045369;28;20218;-61
2023/06/20 05:14:30;;;;;;;25.30;22.87;;;20.80;99.90;;;;;;5046620;28;20237;-61
2023/06/20 05:16:55;;;;;;;24.53;22.33;;;20.70;99.90;;;;;;5049238;28;20226;-61
2023/06/20 05:19:21;;;;;;;23.90;21.80;;;20.70;99.90;;;;;;5051216;28;20210;-61
2023/06/20 05:21:46;;;;;;;24.60;22.00;;;20.70;99.90;;;;;;5045719;28;20229;-61
2023/06/20 05:24:12;;;;;;;24.17;21.87;;;20.70;99.90;;;;;;5048340;28;20241;-62
2023/06/20 05:26:37;;;;;;;25.50;23.20;;;20.70;99.90;;;;;;5048734;28;20193;-61
2023/06/20 05:29:03;;;;;;;25.53;23.23;;;20.80;99.90;;;;;;5046521;28;20237;-61
2023/06/20 05:31:29;;;;;;;24.40;22.20;;;20.80;99.90;;;;;;5049262;28;20208;-62
2023/06/20 05:33:57;;;;;;;25.27;22.93;;;20.80;99.90;;;;;;5047124;28;20212;-62
2023/06/20 05:36:23;;;;;;;25.47;22.97;;;20.90;99.90;;;;;;5047821;28;20256;-62
2023/06/20 05:38:49;;;;;;;25.23;22.73;;;20.90;99.90;;;;;;5047811;28;20293;-62
2023/06/20 05:41:17;;;;;;;25.93;23.50;;;20.90;99.90;;;;;;5045960;28;20201;-61
2023/06/20 05:43:43;;;;;;;24.17;21.97;;;21.00;99.90;;;;;;5048704;28;20187;-62
2023/06/20 05:46:10;;;;;;;25.60;22.93;;;21.20;99.90;;;;;;5057202;28;20205;-63
2023/06/20 05:48:35;;;;;;;25.37;22.97;;;21.10;99.90;;;;;;5058925;28;20187;-62
2023/06/20 05:51:03;;;;;;;23.57;21.37;;;21.20;99.90;;;;;;5056431;28;20263;-62
2023/06/20 05:53:28;;;;;;;24.60;22.37;;;21.10;99.90;;;;;;5055360;28;20229;-62
2023/06/20 05:55:54;;;;;;;24.30;22.00;;;21.20;99.90;;;;;;5056163;28;20229;-62
2023/06/20 05:58:20;;;;;;;26.17;23.77;;;21.10;99.90;;;;;;5057407;28;20206;-62
2023/06/20 06:00:46;;;;;;;27.30;23.10;;;21.20;99.90;;;;;;5057376;28;20608;-62
2023/06/20 06:03:15;;;;;;;26.90;24.10;;;21.20;99.90;;;;;;5057595;28;20205;-62
2023/06/20 06:05:40;;;;;;;30.03;22.53;;;21.20;99.90;;;;;;5055889;28;20186;-63
2023/06/20 06:08:06;;;;;;;25.50;23.17;;;21.30;99.90;;;;;;5057680;28;20198;-63
2023/06/20 06:10:32;;;;;;;24.50;21.93;;;21.30;99.90;;;;;;5057484;28;20672;-62
2023/06/20 06:12:58;;;;;;;26.23;23.47;;;21.40;99.90;;;;;;5056053;28;20206;-63
2023/06/20 06:15:24;;;;;;;23.80;21.80;;;21.30;99.90;;;;;;5058650;28;20329;-62
2023/06/20 06:17:49;;;;;;;25.13;22.83;;;21.50;99.90;;;;;;5054465;28;20282;-62
2023/06/20 06:20:17;;;;;;;24.93;22.60;;;21.50;99.90;;;;;;5057572;28;20236;-63
2023/06/20 06:22:43;;;;;;;24.70;22.10;;;21.70;99.90;;;;;;5056914;28;20935;-62
2023/06/20 06:25:09;;;;;;;26.07;23.77;;;21.90;99.90;;;;;;5057415;28;20221;-62
2023/06/20 06:27:34;;;;;;;24.60;22.07;;;21.90;99.90;;;;;;5055499;28;20220;-64
2023/06/20 06:30:00;;;;;;;24.93;22.67;;;21.90;99.90;;;;;;5060754;28;20254;-63
2023/06/20 06:32:27;;;;;;;25.87;23.37;;;22.00;99.90;;;;;;5053504;28;20240;-62
2023/06/20 06:34:54;;;;;;;26.53;23.90;;;22.00;99.90;;;;;;5056368;28;20581;-65
2023/06/20 06:37:21;;;;;;;25.70;23.23;;;22.10;99.90;;;;;;5057155;28;20277;-66
2023/06/20 06:39:47;;;;;;;25.40;23.17;;;22.20;99.90;;;;;;5054153;28;20329;-62
2023/06/20 06:42:12;;;;;;;27.42;24.83;;;22.30;99.90;;;;;;5057531;28;20732;-63
2023/06/20 06:44:38;;;;;;;25.90;23.43;;;22.30;99.90;;;;;;5055499;28;20198;-63
2023/06/20 06:47:04;;;;;;;25.77;23.43;;;22.40;99.90;;;;;;5057401;28;20198;-63
2023/06/20 06:49:31;;;;;;;26.23;23.70;;;22.40;99.90;;;;;;5056106;28;20198;-63
2023/06/20 06:51:56;;;;;;;25.73;23.55;;;22.40;99.90;;;;;;5057104;28;20232;-63
2023/06/20 06:54:22;;;;;;;26.60;24.10;;;22.50;99.90;;;;;;5054861;28;20288;-63
2023/06/20 06:56:47;;;;;;;27.55;25.02;;;22.50;99.90;;;;;;5055758;28;20216;-63
2023/06/20 06:59:13;;;;;;;26.15;23.83;;;22.60;99.90;;;;;;5044570;28;20248;-63
2023/06/20 07:01:39;;;;;;;25.57;23.30;;;22.70;99.90;;;;;;5047238;28;20218;-63
2023/06/20 07:04:05;;;;;;;25.63;23.23;;;22.70;99.90;;;;;;5048259;28;20610;-62
2023/06/20 07:06:30;;;;;;;25.02;22.85;;;23.00;99.90;;;;;;5044819;28;20224;-62
2023/06/20 07:08:56;;;;;;;25.73;23.23;;;23.20;99.90;;;;;;5046555;28;20218;-62
2023/06/20 07:11:22;;;;;;;26.17;23.67;;;23.30;99.90;;;;;;5046009;28;20227;-62
2023/06/20 07:13:47;;;;;;;26.80;24.40;;;23.30;99.90;;;;;;5046459;28;20276;-62
2023/06/20 07:16:13;;;;;;;25.75;23.42;;;23.30;99.90;;;;;;5046273;28;20742;-62
2023/06/20 07:18:39;;;;;;;26.67;24.35;;;23.40;99.90;;;;;;5046412;28;20207;-62
2023/06/20 07:21:04;;;;;;;27.30;25.00;;;23.40;99.90;;;;;;5048791;28;20305;-62
2023/06/20 07:23:30;;;;;;;27.08;24.58;;;23.40;99.90;;;;;;5046719;28;20191;-62
2023/06/20 07:25:55;;;;;;;25.70;23.20;;;23.40;99.90;;;;;;5047264;28;20656;-62
2023/06/20 07:28:21;;;;;;;25.20;23.05;;;23.70;99.90;;;;;;5048451;28;20186;-62
2023/06/20 07:30:46;;;;;;;26.02;23.52;;;23.80;99.90;;;;;;5044631;28;20198;-62
2023/06/20 07:33:12;;;;;;;25.70;23.33;;;23.80;99.90;;;;;;5046083;28;20199;-63
2023/06/20 07:35:37;;;;;;;25.33;23.13;;;23.70;99.90;;;;;;5045986;28;20941;-62
2023/06/20 07:38:03;;;;;;;25.80;23.30;;;23.80;99.90;;;;;;5046094;28;20554;-61
2023/06/20 07:40:28;;;;;;;27.83;25.13;;;23.70;99.90;;;;;;5046285;28;20296;-62
2023/06/20 07:42:54;;;;;;;26.17;23.77;;;23.90;99.90;;;;;;5046447;28;20218;-63
2023/06/20 07:45:19;;;;;;;25.30;22.77;;;24.10;99.90;;;;;;5045747;28;20204;-62
2023/06/20 07:47:45;;;;;;;27.95;24.80;;;24.10;99.90;;;;;;5050293;28;20269;-62
2023/06/20 07:50:10;;;;;;;25.90;23.52;;;24.10;99.90;;;;;;5050574;28;20225;-62
2023/06/20 07:52:36;;;;;;;26.98;24.33;;;24.20;99.90;;;;;;5053411;28;20221;-62
2023/06/20 07:55:03;;;;;;;27.08;24.75;;;24.20;99.90;;;;;;5048620;28;20195;-61
2023/06/20 07:57:29;;;;;;;26.80;24.30;;;24.40;99.90;;;;;;5051167;28;20197;-62
2023/06/20 07:59:54;;;;;;;28.40;25.33;;;24.40;99.90;;;;;;5050503;28;20314;-63
2023/06/20 08:02:21;;;;;;;26.75;24.25;;;24.50;99.90;;;;;;5049727;28;21052;-62
2023/06/20 08:04:47;;;;;;;22.45;20.45;;;24.50;99.90;;;;;;5050122;28;20644;-61
2023/06/20 08:07:13;;;;;;;25.42;22.90;;;24.50;99.90;;;;;;5049649;28;21133;-61
2023/06/20 08:09:38;;;;;;;27.67;25.00;;;24.40;99.90;;;;;;5049974;28;20207;-61
2023/06/20 08:12:04;;;;;;;26.10;23.83;;;24.40;99.90;;;;;;5049745;28;20246;-62
2023/06/20 08:14:30;;;;;;;27.13;23.92;;;24.40;99.90;;;;;;5050263;28;20625;-62
2023/06/20 08:16:55;;;;;;;25.42;23.17;;;24.40;99.90;;;;;;5050520;28;20203;-62
2023/06/20 08:19:21;;;;;;;28.55;24.13;;;24.40;99.90;;;;;;5050385;28;20695;-61
2023/06/20 08:21:46;;;;;;;26.55;24.25;;;24.40;99.90;;;;;;5049756;28;20229;-61
2023/06/20 08:24:12;;;;;;;27.52;24.98;;;24.40;99.90;;;;;;5056348;28;20339;-62
2023/06/20 08:26:37;;;;;;;27.38;24.70;;;24.40;99.90;;;;;;5051008;28;20259;-64
2023/06/20 08:29:03;;;;;;;19.60;17.98;;;24.40;99.90;;;;;;5048965;28;20222;-70
2023/06/20 08:31:37;;;;;;;25.83;23.50;;;24.20;99.90;;;;;;5048427;28;20561;-70
2023/06/20 08:34:04;;;;;;;22.52;20.40;;;24.30;99.90;;;;;;5048773;28;20239;-70
2023/06/20 08:36:30;;;;;;;22.58;20.50;;;24.20;99.90;;;;;;5051921;28;20201;-70
2023/06/20 08:38:55;;;;;;;24.80;22.48;;;24.20;99.90;;;;;;5046039;28;20297;-73
2023/06/20 08:41:25;;;;;;;27.38;24.98;;;24.20;99.90;;;;;;5060288;28;20208;-71
2023/06/20 08:43:51;;;;;;;25.63;23.13;;;24.40;99.90;;;;;;5060800;28;20509;-72
2023/06/20 08:46:16;;;;;;;24.70;22.45;;;24.40;99.90;;;;;;5050145;28;20665;-74
2023/06/20 08:48:42;;;;;;;25.58;23.13;;;24.50;99.90;;;;;;5049287;28;20214;-72
2023/06/20 08:51:12;;;;;;;28.13;25.38;;;24.60;99.90;;;;;;5048641;28;20199;-71
2023/06/20 08:53:39;;;;;;;27.60;24.95;;;24.70;99.90;;;;;;5048600;28;20249;-72
2023/06/20 08:56:05;;;;;;;28.08;25.58;;;25.00;99.90;;;;;;5054749;28;20693;-70
2023/06/20 08:58:32;;;;;;;27.60;24.80;;;25.10;99.90;;;;;;5062679;28;20201;-69
2023/06/20 09:00:57;;;;;;;27.88;25.02;;;25.00;99.90;;;;;;5064974;28;20263;-70
2023/06/20 09:03:23;;;;;;;27.52;24.42;;;25.00;99.90;;;;;;5064346;28;20214;-70
2023/06/20 09:05:48;;;;;;;26.30;23.75;;;24.80;99.90;;;;;;5063609;28;20246;-71
2023/06/20 09:08:14;;;;;;;26.40;24.00;;;24.70;99.90;;;;;;5068211;28;20916;-70
2023/06/20 09:10:40;;;;;;;25.80;23.40;;;24.60;99.90;;;;;;5066774;28;20260;-70
2023/06/20 09:13:06;;;;;;;27.25;24.63;;;24.40;99.90;;;;;;5070106;28;20754;-71
2023/06/20 09:15:33;;;;;;;26.60;23.95;;;24.40;99.90;;;;;;5058671;28;20304;-73
2023/06/20 09:18:00;;;;;;;26.60;24.05;;;24.20;99.90;;;;;;5058565;28;20734;-70
2023/06/20 09:20:31;;;;;;;23.70;21.42;;;23.90;99.90;;;;;;5059567;28;20194;-71
2023/06/20 09:22:57;;;;;;;25.07;22.97;;;23.80;99.90;;;;;;5049352;28;20361;-71
2023/06/20 09:25:26;;;;;;;25.50;22.83;;;23.70;99.90;;;;;;5051097;28;20210;-71
2023/06/20 09:27:53;;;;;;;25.97;23.40;;;23.60;99.90;;;;;;5047040;28;20186;-72
2023/06/20 09:30:19;;;;;;;29.10;26.50;;;23.40;99.90;;;;;;5048302;28;20201;-72
2023/06/20 09:32:45;;;;;;;31.60;28.53;;;23.00;99.90;;;;;;5060626;28;20214;-73
2023/06/20 09:35:13;;;;;;;32.07;28.93;;;22.60;99.90;;;;;;5059154;28;20217;-72
2023/06/20 09:37:51;;;;;;;30.17;27.30;;;22.30;99.90;;;;;;5061889;28;20838;-72
2023/06/20 09:40:19;;;;;;;31.47;28.07;;;21.90;99.90;;;;;;5059838;28;20226;-72
2023/06/20 09:42:46;;;;;;;32.37;29.13;;;21.60;99.90;;;;;;5059057;28;20221;-73
2023/06/20 09:45:16;;;;;;;32.10;29.10;;;21.50;99.90;;;;;;5059539;28;20570;-73
2023/06/20 09:47:44;;;;;;;31.03;28.23;;;21.40;99.90;;;;;;5058117;28;20545;-72
2023/06/20 09:50:17;;;;;;;30.27;27.37;;;21.30;99.90;;;;;;5056567;28;20206;-73
2023/06/20 09:52:50;;;;;;;31.77;28.90;;;21.20;99.90;;;;;;5058309;28;20206;-73
2023/06/20 09:55:18;;;;;;;34.30;30.70;;;21.20;99.90;;;;;;5056394;28;20193;-73
2023/06/20 09:57:50;;;;;;;29.93;27.20;;;21.10;99.90;;;;;;5050559;28;20335;-75
2023/06/20 10:00:17;;;;;;;32.87;29.77;;;21.00;99.90;;;;;;5046064;28;20198;-75
2023/06/20 10:02:45;;;;;;;32.87;29.77;;;20.90;99.90;;;;;;5048334;28;20214;-72
2023/06/20 10:05:18;;;;;;;35.77;31.93;;;20.80;99.90;;;;;;5045731;28;20568;-73
2023/06/20 10:07:46;;;;;;;39.53;35.40;;;20.70;99.90;;;;;;5047657;28;20205;-71
2023/06/20 10:10:18;;;;;;;39.27;35.20;;;20.70;99.90;;;;;;5050817;28;20201;-71
2023/06/20 10:12:45;;;;;;;37.00;33.30;;;20.70;99.90;;;;;;5045090;28;20263;-73
2023/06/20 10:15:14;;;;;;;39.07;35.13;;;20.70;99.90;;;;;;5043793;28;20301;-71
2023/06/20 10:17:41;;;;;;;37.10;33.30;;;20.70;99.90;;;;;;5050473;28;21086;-71
2023/06/20 10:20:22;;;;;;;36.20;32.67;;;20.70;99.90;;;;;;5046704;28;20228;-70
2023/06/20 10:22:49;;;;;;;38.43;34.30;;;20.70;99.90;;;;;;5051510;28;20218;-71
2023/06/20 10:25:17;;;;;;;34.43;31.20;;;20.70;99.90;;;;;;5051355;28;20257;-71
2023/06/20 10:28:03;;;;;;;34.17;30.90;;;20.70;99.90;;;;;;5051412;28;20205;-71
2023/06/20 10:30:49;;;;;;;33.90;30.70;;;20.70;99.90;;;;;;5053131;28;20224;-74
2023/06/20 10:33:17;;;;;;;33.67;30.27;;;20.70;99.90;;;;;;5047461;28;20199;-76
2023/06/20 10:35:56;;;;;;;33.47;30.20;;;20.70;99.90;;;;;;5047920;28;20250;-71
2023/06/20 10:38:22;;;;;;;34.70;31.20;;;20.70;99.90;;;;;;5047081;28;20205;-71
2023/06/20 10:41:04;;;;;;;33.03;29.73;;;20.70;99.90;;;;;;5053452;28;20297;-73
2023/06/20 10:43:29;;;;;;;33.33;29.97;;;20.60;99.90;;;;;;5045241;28;20313;-72
2023/06/20 10:45:59;;;;;;;31.80;28.87;;;20.70;99.90;;;;;;5047350;28;20286;-70
2023/06/20 10:48:26;;;;;;;32.33;29.20;;;20.70;99.90;;;;;;5045646;28;20288;-70
2023/06/20 10:51:01;;;;;;;32.70;29.53;;;20.70;99.90;;;;;;5046502;28;20193;-70
2023/06/20 10:53:30;;;;;;;32.60;29.40;;;20.60;99.90;;;;;;5040094;28;20206;-77
2023/06/20 10:55:56;;;;;;;34.23;30.93;;;20.60;99.90;;;;;;5040252;28;20209;-77
2023/06/20 10:58:21;;;;;;;34.57;31.13;;;20.70;99.90;;;;;;5049442;28;20206;-73
2023/06/20 11:00:50;;;;;;;33.47;30.20;;;20.80;99.90;;;;;;5047128;28;20207;-73
2023/06/20 11:03:17;;;;;;;31.10;28.27;;;20.90;99.90;;;;;;5037942;28;20233;-72
2023/06/20 11:05:48;;;;;;;33.47;30.13;;;20.80;99.90;;;;;;5049422;28;20300;-75
2023/06/20 11:08:25;;;;;;;32.10;28.97;;;20.90;99.90;;;;;;5038454;28;20201;-75
2023/06/20 11:10:50;;;;;;;33.13;29.73;;;21.00;99.90;;;;;;5040945;28;20233;-73
2023/06/20 11:13:16;;;;;;;32.37;28.90;;;20.90;99.90;;;;;;5047830;28;20258;-73
2023/06/20 11:15:42;;;;;;;34.37;30.30;;;20.90;99.90;;;;;;5047310;28;20569;-74
2023/06/20 11:18:08;;;;;;;32.23;29.13;;;20.90;99.90;;;;;;5045945;28;20213;-72
2023/06/20 11:20:36;;;;;;;32.77;29.67;;;20.90;99.90;;;;;;5049612;28;20202;-71
2023/06/20 11:23:04;;;;;;;33.17;30.07;;;21.00;99.90;;;;;;5052079;28;20640;-72
2023/06/20 11:25:31;;;;;;;33.20;30.13;;;21.10;99.90;;;;;;5045079;28;20619;-72
2023/06/20 11:28:04;;;;;;;34.33;31.07;;;21.10;99.90;;;;;;5052202;28;20314;-71
2023/06/20 11:30:31;;;;;;;33.40;30.23;;;21.00;99.90;;;;;;5041680;28;20206;-72
2023/06/20 11:33:02;;;;;;;33.30;30.27;;;21.10;99.90;;;;;;5046132;28;20202;-72
2023/06/20 11:35:44;;;;;;;32.63;29.73;;;21.20;99.90;;;;;;5056802;28;20242;-76
2023/06/20 11:38:13;;;;;;;35.23;32.03;;;21.20;99.90;;;;;;5047688;28;20864;-79
2023/06/20 11:40:39;;;;;;;34.37;31.30;;;21.30;99.90;;;;;;5053496;28;20202;-76
2023/06/20 11:43:04;;;;;;;35.27;32.00;;;21.20;99.90;;;;;;5064155;28;20280;-76
2023/06/20 11:45:31;;;;;;;36.73;33.13;;;21.20;99.90;;;;;;5058248;28;20205;-72
2023/06/20 11:48:13;;;;;;;32.90;29.73;;;21.40;99.90;;;;;;5047973;28;20214;-72
2023/06/20 11:50:43;;;;;;;33.70;30.63;;;21.50;99.90;;;;;;5051620;28;20284;-74
2023/06/20 11:53:20;;;;;;;35.93;32.40;;;21.80;99.90;;;;;;5050219;28;20296;-72
2023/06/20 11:55:54;;;;;;;36.70;33.40;;;22.00;99.90;;;;;;5047109;28;20202;-72
2023/06/20 11:58:20;;;;;;;35.47;32.07;;;22.30;99.90;;;;;;5050496;28;20298;-72
2023/06/20 12:00:57;;;;;;;36.50;33.20;;;22.60;99.90;;;;;;5051186;28;20242;-72
2023/06/20 12:03:22;;;;;;;35.13;31.90;;;22.70;99.90;;;;;;5050203;28;20236;-73
2023/06/20 12:05:48;;;;;;;33.50;30.07;;;22.80;99.90;;;;;;5049432;28;20688;-72
2023/06/20 12:08:14;;;;;;;30.97;28.27;;;23.00;99.90;;;;;;5046921;28;20247;-72
2023/06/20 12:10:46;;;;;;;32.83;29.93;;;22.80;99.90;;;;;;5048764;28;20268;-73
2023/06/20 12:13:11;;;;;;;32.33;29.38;;;22.90;99.90;;;;;;5053535;28;20966;-73
2023/06/20 12:15:37;;;;;;;33.50;30.30;;;22.70;99.90;;;;;;5058439;28;20198;-72
2023/06/20 12:18:02;;;;;;;32.85;29.65;;;22.80;99.90;;;;;;5058553;28;20237;-72
2023/06/20 12:20:28;;;;;;;32.37;29.50;;;22.90;99.90;;;;;;5056926;28;20279;-72
2023/06/20 12:22:53;;;;;;;31.83;28.83;;;22.90;99.90;;;;;;5057896;28;20672;-72
2023/06/20 12:25:19;;;;;;;34.17;31.20;;;23.00;99.90;;;;;;5058780;28;20198;-73
2023/06/20 12:27:44;;;;;;;33.20;30.42;;;23.20;99.90;;;;;;5059705;28;20243;-72
2023/06/20 12:30:10;;;;;;;33.13;30.25;;;23.40;99.90;;;;;;5057993;28;20201;-72